createdAt,value
2022-12-18T00:01:24.297Z,-0.80
2022-12-18T00:03:53.460Z,-0.80
2022-12-18T00:06:21.589Z,-0.80
2022-12-18T00:08:48.572Z,-0.80
2022-12-18T00:11:19.389Z,-0.80
2022-12-18T00:13:46.874Z,-0.80
2022-12-18T00:16:19.639Z,-0.80
2022-12-18T00:18:47.367Z,-0.80
2022-12-18T00:21:15.954Z,-0.80
2022-12-18T00:23:45.447Z,-0.80
2022-12-18T00:26:16.402Z,-0.80
2022-12-18T00:28:44.733Z,-0.80
2022-12-18T00:31:15.289Z,-0.80
2022-12-18T00:33:42.839Z,-0.80
2022-12-18T00:36:16.313Z,-0.70
2022-12-18T00:38:44.699Z,-0.80
2022-12-18T00:41:13.496Z,-0.80
2022-12-18T00:43:41.451Z,-0.80
2022-12-18T00:46:10.431Z,-0.80
2022-12-18T00:48:37.504Z,-0.80
2022-12-18T00:51:04.490Z,-0.80
2022-12-18T00:53:31.444Z,-0.70
2022-12-18T00:55:58.432Z,-0.80
2022-12-18T00:58:25.324Z,-0.70
2022-12-18T01:00:52.392Z,-0.80
2022-12-18T01:03:19.479Z,-0.70
2022-12-18T01:05:46.962Z,-0.70
2022-12-18T01:08:13.982Z,-0.80
2022-12-18T01:10:43.736Z,-0.70
2022-12-18T01:13:12.188Z,-0.70
2022-12-18T01:15:39.362Z,-0.70
2022-12-18T01:18:06.496Z,-0.70
2022-12-18T01:20:34.089Z,-0.70
2022-12-18T01:23:02.118Z,-0.70
2022-12-18T01:25:29.051Z,-0.70
2022-12-18T01:27:56.161Z,-0.70
2022-12-18T01:30:23.219Z,-0.70
2022-12-18T01:32:50.386Z,-0.70
2022-12-18T01:35:17.427Z,-0.70
2022-12-18T01:37:46.193Z,-0.70
2022-12-18T01:40:13.372Z,-0.70
2022-12-18T01:42:40.393Z,-0.70
2022-12-18T01:45:13.630Z,-0.70
2022-12-18T01:47:48.269Z,-0.60
2022-12-18T01:50:32.171Z,-0.70
2022-12-18T01:53:11.132Z,-0.60
2022-12-18T01:55:47.807Z,-0.60
2022-12-18T01:58:15.427Z,-0.60
2022-12-18T02:00:42.963Z,-0.70
2022-12-18T02:03:12.540Z,-0.60
2022-12-18T02:05:49.725Z,-0.60
2022-12-18T02:08:27.173Z,-0.60
2022-12-18T02:11:25.699Z,-0.60
2022-12-18T02:13:52.524Z,-0.50
2022-12-18T02:16:43.818Z,-0.50
2022-12-18T02:19:40.983Z,-0.50
2022-12-18T02:22:38.509Z,-0.50
2022-12-18T02:25:37.171Z,-0.50
2022-12-18T02:28:08.665Z,-0.60
2022-12-18T02:30:38.225Z,-0.60
2022-12-18T02:33:09.658Z,-0.60
2022-12-18T02:35:40.189Z,-0.60
2022-12-18T02:38:07.921Z,-0.60
2022-12-18T02:40:37.209Z,-0.60
2022-12-18T02:43:11.962Z,-0.60
2022-12-18T02:45:49.675Z,-0.60
2022-12-18T02:48:21.235Z,-0.60
2022-12-18T02:51:12.049Z,-0.50
2022-12-18T02:53:46.211Z,-0.60
2022-12-18T02:56:19.687Z,-0.50
2022-12-18T02:58:59.215Z,-0.60
2022-12-18T03:01:36.029Z,-0.60
2022-12-18T03:04:27.871Z,-0.60
2022-12-18T03:06:58.905Z,-0.60
2022-12-18T03:09:44.124Z,-0.60
2022-12-18T03:12:29.699Z,-0.60
2022-12-18T03:15:09.534Z,-0.60
2022-12-18T03:17:40.834Z,-0.60
2022-12-18T03:20:16.106Z,-0.60
2022-12-18T03:22:46.514Z,-0.60
2022-12-18T03:25:15.947Z,-0.60
2022-12-18T03:27:47.814Z,-0.60
2022-12-18T03:30:16.185Z,-0.60
2022-12-18T03:32:58.802Z,-0.60
2022-12-18T03:35:39.228Z,-0.60
2022-12-18T03:38:06.961Z,-0.70
2022-12-18T03:41:02.738Z,-0.70
2022-12-18T03:43:57.059Z,-0.70
2022-12-18T03:46:48.250Z,-0.60
2022-12-18T03:49:53.254Z,-0.70
2022-12-18T03:52:24.326Z,-0.60
2022-12-18T03:54:52.670Z,-0.70
2022-12-18T03:57:27.076Z,-0.70
2022-12-18T04:00:12.073Z,-0.60
2022-12-18T04:02:44.307Z,-0.60
2022-12-18T04:05:12.750Z,-0.70
2022-12-18T04:07:41.025Z,-0.70
2022-12-18T04:10:10.591Z,-0.70
2022-12-18T04:12:39.422Z,-0.70
2022-12-18T04:15:07.560Z,-0.70
2022-12-18T04:17:34.519Z,-0.70
2022-12-18T04:20:01.795Z,-0.70
2022-12-18T04:22:28.965Z,-0.70
2022-12-18T04:24:56.007Z,-0.70
2022-12-18T04:27:23.007Z,-0.70
2022-12-18T04:29:50.010Z,-0.70
2022-12-18T04:32:18.693Z,-0.70
2022-12-18T04:34:45.725Z,-0.70
2022-12-18T04:37:12.801Z,-0.80
2022-12-18T04:39:41.397Z,-0.70
2022-12-18T04:42:08.600Z,-0.70
2022-12-18T04:44:36.657Z,-0.70
2022-12-18T04:47:03.853Z,-0.70
2022-12-18T04:49:30.779Z,-0.70
2022-12-18T04:51:57.719Z,-0.80
2022-12-18T04:54:24.638Z,-0.80
2022-12-18T04:56:51.890Z,-0.80
2022-12-18T04:59:19.029Z,-0.80
2022-12-18T05:01:47.044Z,-0.70
2022-12-18T05:04:14.121Z,-0.70
2022-12-18T05:06:41.053Z,-0.70
2022-12-18T05:09:08.004Z,-0.80
2022-12-18T05:11:36.552Z,-0.70
2022-12-18T05:14:03.734Z,-0.80
2022-12-18T05:16:30.950Z,-0.80
2022-12-18T05:18:57.973Z,-0.70
2022-12-18T05:21:24.954Z,-0.80
2022-12-18T05:23:51.924Z,-0.80
2022-12-18T05:26:19.695Z,-0.80
2022-12-18T05:28:47.162Z,-0.70
2022-12-18T05:31:14.885Z,-0.80
2022-12-18T05:33:42.775Z,-0.80
2022-12-18T05:36:10.990Z,-0.80
2022-12-18T05:38:39.817Z,-0.70
2022-12-18T05:41:08.185Z,-0.70
2022-12-18T05:43:37.873Z,-0.70
2022-12-18T05:46:11.936Z,-0.70
2022-12-18T05:48:39.032Z,-0.60
2022-12-18T05:51:08.548Z,-0.60
2022-12-18T05:53:37.503Z,-0.60
2022-12-18T05:56:07.588Z,-0.60
2022-12-18T05:58:35.011Z,-0.60
2022-12-18T06:01:14.567Z,-0.60
2022-12-18T06:03:41.891Z,-0.60
2022-12-18T06:06:21.047Z,-0.50
2022-12-18T06:08:48.473Z,-0.50
2022-12-18T06:11:18.979Z,-0.50
2022-12-18T06:13:46.494Z,-0.50
2022-12-18T06:16:13.799Z,-0.50
2022-12-18T06:18:40.935Z,-0.40
2022-12-18T06:21:08.091Z,-0.40
2022-12-18T06:23:35.612Z,-0.40
2022-12-18T06:26:09.820Z,-0.40
2022-12-18T06:28:37.063Z,-0.40
2022-12-18T06:31:05.361Z,-0.40
2022-12-18T06:33:32.841Z,-0.40
2022-12-18T06:36:06.617Z,-0.50
2022-12-18T06:38:35.045Z,-0.50
2022-12-18T06:41:02.951Z,-0.40
2022-12-18T06:43:29.866Z,-0.50
2022-12-18T06:46:01.843Z,-0.40
2022-12-18T06:48:29.948Z,-0.40
2022-12-18T06:50:57.004Z,-0.40
2022-12-18T06:53:24.348Z,-0.40
2022-12-18T06:55:51.495Z,-0.40
2022-12-18T06:58:18.489Z,-0.40
2022-12-18T07:00:45.532Z,-0.40
2022-12-18T07:03:12.741Z,-0.30
2022-12-18T07:05:43.022Z,-0.20
2022-12-18T07:08:10.200Z,-0.30
2022-12-18T07:10:49.733Z,-0.30
2022-12-18T07:13:19.013Z,-0.30
2022-12-18T07:15:45.958Z,-0.30
2022-12-18T07:18:12.947Z,-0.30
2022-12-18T07:20:40.760Z,-0.20
2022-12-18T07:23:07.899Z,-0.20
2022-12-18T07:25:36.315Z,-0.10
2022-12-18T07:28:03.708Z,-0.10
2022-12-18T07:30:30.744Z,0.00
2022-12-18T07:32:57.678Z,0.00
2022-12-18T07:35:25.523Z,0.00
2022-12-18T07:37:52.730Z,0.10
2022-12-18T07:40:19.696Z,0.10
2022-12-18T07:42:47.215Z,0.20
2022-12-18T07:45:14.113Z,0.20
2022-12-18T07:47:42.363Z,0.20
2022-12-18T07:50:10.002Z,0.20
2022-12-18T07:52:36.890Z,0.20
2022-12-18T07:55:04.450Z,0.30
2022-12-18T07:57:49.998Z,0.20
2022-12-18T08:00:18.048Z,0.30
2022-12-18T08:02:45.348Z,0.30
2022-12-18T08:05:12.523Z,0.40
2022-12-18T08:07:39.521Z,0.30
2022-12-18T08:10:07.597Z,0.30
2022-12-18T08:12:34.623Z,0.40
2022-12-18T08:15:02.238Z,0.40
2022-12-18T08:17:29.698Z,0.40
2022-12-18T08:19:56.922Z,0.40
2022-12-18T08:22:24.217Z,0.40
2022-12-18T08:24:51.310Z,0.40
2022-12-18T08:27:29.354Z,0.40
2022-12-18T08:29:57.597Z,0.40
2022-12-18T08:32:25.869Z,0.50
2022-12-18T08:34:55.057Z,0.60
2022-12-18T08:37:22.209Z,0.60
2022-12-18T08:39:49.106Z,0.60
2022-12-18T08:42:34.992Z,0.60
2022-12-18T08:45:02.379Z,0.70
2022-12-18T08:47:29.606Z,0.70
2022-12-18T08:49:56.736Z,0.70
2022-12-18T08:52:23.613Z,0.70
2022-12-18T08:54:50.923Z,0.80
2022-12-18T08:57:18.161Z,0.80
2022-12-18T08:59:45.131Z,0.80
2022-12-18T09:02:12.932Z,0.80
2022-12-18T09:04:41.133Z,0.80
2022-12-18T09:07:08.353Z,0.90
2022-12-18T09:09:35.305Z,0.90
2022-12-18T09:12:02.332Z,1.00
2022-12-18T09:14:29.758Z,1.00
2022-12-18T09:16:56.721Z,1.00
2022-12-18T09:19:23.835Z,1.10
2022-12-18T09:21:50.841Z,1.10
2022-12-18T09:24:18.703Z,1.10
2022-12-18T09:26:47.343Z,1.20
2022-12-18T09:29:18.785Z,1.20
2022-12-18T09:31:46.876Z,1.20
2022-12-18T09:34:14.175Z,1.30
2022-12-18T09:36:41.675Z,1.20
2022-12-18T09:39:09.196Z,1.30
2022-12-18T09:41:45.743Z,1.40
2022-12-18T09:44:45.074Z,1.40
2022-12-18T09:47:22.657Z,1.40
2022-12-18T09:49:54.423Z,1.50
2022-12-18T09:52:27.740Z,1.60
2022-12-18T09:55:08.926Z,1.60
2022-12-18T09:57:40.533Z,1.70
2022-12-18T10:00:22.452Z,1.70
2022-12-18T10:02:53.141Z,1.70
2022-12-18T10:05:42.788Z,1.70
2022-12-18T10:08:20.838Z,1.80
2022-12-18T10:10:50.045Z,1.70
2022-12-18T10:13:31.960Z,1.80
2022-12-18T10:16:10.755Z,1.80
2022-12-18T10:18:58.266Z,1.80
2022-12-18T10:21:52.592Z,1.80
2022-12-18T10:24:50.202Z,1.90
2022-12-18T10:27:19.971Z,1.90
2022-12-18T10:29:47.271Z,1.90
2022-12-18T10:32:25.989Z,1.90
2022-12-18T10:35:00.166Z,1.90
2022-12-18T10:37:30.283Z,1.90
2022-12-18T10:40:09.882Z,2.00
2022-12-18T10:42:37.117Z,2.00
2022-12-18T10:45:24.697Z,2.00
2022-12-18T10:47:51.901Z,1.90
2022-12-18T10:51:09.076Z,1.90
2022-12-18T10:53:25.560Z,2.00
2022-12-18T10:55:55.451Z,1.90
2022-12-18T10:58:46.224Z,1.90
2022-12-18T11:01:21.324Z,2.00
2022-12-18T11:04:02.902Z,2.00
2022-12-18T11:06:38.449Z,2.00
2022-12-18T11:09:19.117Z,2.10
2022-12-18T11:11:55.751Z,2.00
2022-12-18T11:14:27.107Z,2.00
2022-12-18T11:17:24.380Z,2.00
2022-12-18T11:19:42.917Z,2.00
2022-12-18T11:22:29.002Z,2.00
2022-12-18T11:25:22.897Z,2.00
2022-12-18T11:27:50.479Z,2.00
2022-12-18T11:30:34.489Z,2.00
2022-12-18T11:33:17.017Z,2.00
2022-12-18T11:36:04.890Z,2.00
2022-12-18T11:38:35.694Z,2.00
2022-12-18T11:41:46.399Z,2.00
2022-12-18T11:44:20.847Z,2.00
2022-12-18T11:46:54.273Z,2.00
2022-12-18T11:49:29.797Z,2.10
2022-12-18T11:52:23.212Z,2.10
2022-12-18T11:54:53.991Z,2.10
2022-12-18T11:58:03.787Z,2.10
2022-12-18T12:00:31.367Z,2.10
2022-12-18T12:03:17.279Z,2.10
2022-12-18T12:06:15.806Z,2.10
2022-12-18T12:08:54.889Z,2.10
2022-12-18T12:11:43.308Z,2.20
2022-12-18T12:14:51.650Z,2.20
2022-12-18T12:17:36.653Z,2.20
2022-12-18T12:20:24.122Z,2.20
2022-12-18T12:23:17.301Z,2.20
2022-12-18T12:26:01.495Z,2.30
2022-12-18T12:29:10.665Z,2.20
2022-12-18T12:31:57.714Z,2.20
2022-12-18T12:34:31.665Z,2.20
2022-12-18T12:36:58.710Z,2.30
2022-12-18T12:39:39.380Z,2.30
2022-12-18T12:42:54.979Z,2.30
2022-12-18T12:45:34.690Z,2.30
2022-12-18T12:48:04.156Z,2.30
2022-12-18T12:50:36.221Z,2.40
2022-12-18T12:53:09.002Z,2.40
2022-12-18T12:55:38.995Z,2.40
2022-12-18T12:58:34.709Z,2.60
2022-12-18T13:01:06.592Z,2.50
2022-12-18T13:03:39.597Z,2.60
2022-12-18T13:06:41.509Z,2.60
2022-12-18T13:09:11.424Z,2.60
2022-12-18T13:12:07.620Z,2.60
2022-12-18T13:14:36.964Z,2.70
2022-12-18T13:17:22.951Z,2.70
2022-12-18T13:20:10.181Z,2.70
2022-12-18T13:22:41.885Z,2.70
2022-12-18T13:25:30.983Z,2.70
2022-12-18T13:28:29.029Z,2.80
2022-12-18T13:30:59.904Z,2.80
2022-12-18T13:33:28.073Z,2.80
2022-12-18T13:36:11.020Z,2.90
2022-12-18T13:38:42.044Z,2.90
2022-12-18T13:41:12.150Z,2.90
2022-12-18T13:43:46.312Z,2.90
2022-12-18T13:46:28.773Z,2.90
2022-12-18T13:49:20.851Z,2.90
2022-12-18T13:51:51.546Z,2.90
2022-12-18T13:54:40.246Z,2.80
2022-12-18T13:57:26.214Z,2.90
2022-12-18T13:59:54.684Z,2.80
2022-12-18T14:02:29.699Z,2.80
2022-12-18T14:05:00.152Z,2.90
2022-12-18T14:07:33.046Z,2.90
2022-12-18T14:10:41.824Z,2.90
2022-12-18T14:13:09.588Z,2.90
2022-12-18T14:15:46.857Z,3.00
2022-12-18T14:18:39.332Z,2.90
2022-12-18T14:21:07.925Z,2.90
2022-12-18T14:23:42.610Z,3.00
2022-12-18T14:26:31.112Z,2.90
2022-12-18T14:28:59.926Z,3.00
2022-12-18T14:31:32.798Z,2.90
2022-12-18T14:34:01.895Z,3.00
2022-12-18T14:36:30.365Z,3.00
2022-12-18T14:39:00.475Z,3.00
2022-12-18T14:41:29.002Z,3.00
2022-12-18T14:44:05.868Z,3.00
2022-12-18T14:46:39.661Z,3.00
2022-12-18T14:49:24.615Z,3.00
2022-12-18T14:52:03.465Z,3.00
2022-12-18T14:54:32.807Z,3.00
2022-12-18T14:57:25.387Z,3.00
2022-12-18T14:59:53.667Z,3.00
2022-12-18T15:02:29.303Z,3.00
2022-12-18T15:05:26.611Z,3.00
2022-12-18T15:07:55.974Z,2.90
2022-12-18T15:10:29.802Z,3.00
2022-12-18T15:12:56.726Z,3.00
2022-12-18T15:15:39.004Z,3.00
2022-12-18T15:18:09.046Z,2.90
2022-12-18T15:20:53.636Z,2.90
2022-12-18T15:23:39.465Z,2.80
2022-12-18T15:26:11.602Z,2.90
2022-12-18T15:28:40.145Z,2.90
2022-12-18T15:31:22.471Z,2.90
2022-12-18T15:33:55.652Z,2.90
2022-12-18T15:36:26.467Z,2.90
2022-12-18T15:38:56.139Z,2.90
2022-12-18T15:41:37.395Z,2.90
2022-12-18T15:44:22.248Z,3.00
2022-12-18T15:46:49.520Z,3.00
2022-12-18T15:49:16.563Z,3.00
2022-12-18T15:51:43.929Z,3.10
2022-12-18T15:54:17.311Z,3.00
2022-12-18T15:57:04.715Z,3.00
2022-12-18T15:59:31.868Z,3.00
2022-12-18T16:01:58.825Z,3.00
2022-12-18T16:04:26.641Z,3.00
2022-12-18T16:09:41.061Z,3.00
2022-12-18T16:12:15.257Z,3.00
2022-12-18T16:14:42.251Z,3.00
2022-12-18T16:17:12.643Z,2.90
2022-12-18T16:19:39.891Z,2.90
2022-12-18T16:22:07.253Z,2.90
2022-12-18T16:24:37.297Z,2.90
2022-12-18T16:27:05.576Z,2.90
2022-12-18T16:29:32.525Z,2.90
2022-12-18T16:32:01.303Z,3.00
2022-12-18T16:34:35.482Z,3.00
2022-12-18T16:37:08.369Z,3.00
2022-12-18T16:39:37.002Z,3.00
2022-12-18T16:42:11.170Z,2.90
2022-12-18T16:44:40.503Z,2.90
2022-12-18T16:47:08.291Z,2.90
2022-12-18T16:49:37.194Z,2.90
2022-12-18T16:52:07.382Z,2.90
2022-12-18T16:54:36.842Z,2.80
2022-12-18T16:57:05.535Z,2.90
2022-12-18T16:59:32.969Z,2.80
2022-12-18T17:02:00.137Z,2.80
2022-12-18T17:04:27.206Z,2.80
2022-12-18T17:06:54.529Z,2.80
2022-12-18T17:09:25.571Z,2.80
2022-12-18T17:11:53.772Z,2.80
2022-12-18T17:14:23.280Z,2.70
2022-12-18T17:17:01.889Z,2.80
2022-12-18T17:19:37.847Z,2.70
2022-12-18T17:22:05.114Z,2.70
2022-12-18T17:24:35.079Z,2.70
2022-12-18T17:27:03.945Z,2.70
2022-12-18T17:29:31.064Z,2.70
2022-12-18T17:32:00.289Z,2.60
2022-12-18T17:34:27.955Z,2.60
2022-12-18T17:36:55.445Z,2.60
2022-12-18T17:39:24.197Z,2.60
2022-12-18T17:41:51.132Z,2.60
2022-12-18T17:44:19.111Z,2.60
2022-12-18T17:46:46.495Z,2.60
2022-12-18T17:49:14.755Z,2.70
2022-12-18T17:51:45.454Z,2.60
2022-12-18T17:54:12.389Z,2.60
2022-12-18T17:56:40.212Z,2.50
2022-12-18T17:59:07.374Z,2.50
2022-12-18T18:01:37.366Z,2.50
2022-12-18T18:04:08.662Z,2.50
2022-12-18T18:06:38.101Z,2.50
2022-12-18T18:09:08.638Z,2.50
2022-12-18T18:12:02.041Z,2.50
2022-12-18T18:14:29.427Z,2.40
2022-12-18T18:16:56.904Z,2.40
2022-12-18T18:19:27.692Z,2.40
2022-12-18T18:21:54.699Z,2.40
2022-12-18T18:24:23.812Z,2.40
2022-12-18T18:26:51.086Z,2.40
2022-12-18T18:29:27.842Z,2.30
2022-12-18T18:31:56.559Z,2.30
2022-12-18T18:34:25.895Z,2.30
2022-12-18T18:36:53.243Z,2.30
2022-12-18T18:39:20.562Z,2.30
2022-12-18T18:41:48.763Z,2.30
2022-12-18T18:44:17.607Z,2.20
2022-12-18T18:46:45.644Z,2.20
2022-12-18T18:49:13.875Z,2.20
2022-12-18T18:51:42.008Z,2.20
2022-12-18T18:54:10.222Z,2.30
2022-12-18T18:59:31.308Z,2.20
2022-12-18T19:02:00.686Z,2.20
2022-12-18T19:04:32.200Z,2.20
2022-12-18T19:06:59.196Z,2.20
2022-12-18T19:09:26.675Z,2.20
2022-12-18T19:12:12.689Z,2.20
2022-12-18T19:14:39.792Z,2.30
2022-12-18T19:17:06.804Z,2.20
2022-12-18T19:19:34.107Z,2.30
2022-12-18T19:22:01.560Z,2.30
2022-12-18T19:24:29.515Z,2.30
2022-12-18T19:26:57.952Z,2.40
2022-12-18T19:29:25.573Z,2.40
2022-12-18T19:31:52.713Z,2.40
2022-12-18T19:34:19.962Z,2.30
2022-12-18T19:36:46.928Z,2.40
2022-12-18T19:39:19.490Z,2.40
2022-12-18T19:41:47.598Z,2.40
2022-12-18T19:44:16.857Z,2.40
2022-12-18T19:46:47.292Z,2.40
2022-12-18T19:49:17.358Z,2.40
2022-12-18T19:51:45.750Z,2.40
2022-12-18T19:54:16.965Z,2.30
2022-12-18T19:56:45.245Z,2.30
2022-12-18T19:59:12.583Z,2.30
2022-12-18T20:01:39.891Z,2.20
2022-12-18T20:04:07.136Z,2.30
2022-12-18T20:06:36.874Z,2.20
2022-12-18T20:09:06.895Z,2.20
2022-12-18T20:11:41.489Z,2.20
2022-12-18T20:14:13.100Z,2.20
2022-12-18T20:16:41.076Z,2.20
2022-12-18T20:19:09.735Z,2.20
2022-12-18T20:21:42.404Z,2.20
2022-12-18T20:24:09.405Z,2.20
2022-12-18T20:26:36.541Z,2.10
2022-12-18T20:29:03.677Z,2.10
2022-12-18T20:31:30.750Z,2.10
2022-12-18T20:34:01.539Z,2.00
2022-12-18T20:36:30.756Z,2.00
2022-12-18T20:39:00.504Z,2.00
2022-12-18T20:41:33.492Z,2.00
2022-12-18T20:44:05.398Z,2.00
2022-12-18T20:46:34.631Z,2.00
2022-12-18T20:49:03.498Z,2.10
2022-12-18T20:51:32.420Z,2.10
2022-12-18T20:54:02.148Z,2.20
2022-12-18T20:56:30.911Z,2.10
2022-12-18T20:59:00.616Z,2.10
2022-12-18T21:01:29.571Z,2.00
2022-12-18T21:03:56.871Z,2.00
2022-12-18T21:06:25.077Z,2.00
2022-12-18T21:08:52.077Z,2.00
2022-12-18T21:11:40.586Z,2.00
2022-12-18T21:14:18.460Z,2.00
2022-12-18T21:16:46.351Z,2.00
2022-12-18T21:19:16.268Z,1.90
2022-12-18T21:21:43.342Z,1.80
2022-12-18T21:24:11.221Z,1.90
2022-12-18T21:26:45.511Z,1.80
2022-12-18T21:29:22.306Z,1.70
2022-12-18T21:31:49.986Z,1.70
2022-12-18T21:34:22.150Z,1.70
2022-12-18T21:36:49.837Z,1.70
2022-12-18T21:39:17.925Z,1.70
2022-12-18T21:42:05.495Z,1.70
2022-12-18T21:44:38.827Z,1.70
2022-12-18T21:47:22.348Z,1.70
2022-12-18T21:49:53.423Z,1.60
2022-12-18T21:52:29.511Z,1.50
2022-12-18T21:55:06.676Z,1.50
2022-12-18T21:57:36.452Z,1.40
2022-12-18T22:00:05.061Z,1.40
2022-12-18T22:02:32.632Z,1.40
2022-12-18T22:05:01.572Z,1.30
2022-12-18T22:07:29.325Z,1.30
2022-12-18T22:09:58.646Z,1.30
2022-12-18T22:12:35.791Z,1.30
2022-12-18T22:15:13.885Z,1.20
2022-12-18T22:17:50.275Z,1.20
2022-12-18T22:20:18.010Z,1.20
2022-12-18T22:22:47.452Z,1.20
2022-12-18T22:25:14.412Z,1.10
2022-12-18T22:27:41.259Z,1.10
2022-12-18T22:30:08.928Z,1.10
2022-12-18T22:32:36.513Z,1.10
2022-12-18T22:35:10.432Z,1.00
2022-12-18T22:37:41.253Z,1.10
2022-12-18T22:40:11.167Z,1.10
2022-12-18T22:42:39.894Z,1.10
2022-12-18T22:45:07.519Z,1.10
2022-12-18T22:47:34.482Z,1.10
2022-12-18T22:50:01.481Z,1.00
2022-12-18T22:52:30.246Z,1.00
2022-12-18T22:54:57.217Z,0.90
2022-12-18T22:57:24.410Z,1.00
2022-12-18T22:59:51.869Z,1.00
2022-12-18T23:02:19.433Z,1.00
2022-12-18T23:04:47.844Z,1.00
2022-12-18T23:07:16.052Z,1.00
2022-12-18T23:09:43.643Z,1.00
2022-12-18T23:12:16.112Z,1.00
2022-12-18T23:14:43.388Z,1.00
2022-12-18T23:17:10.313Z,0.90
2022-12-18T23:19:37.582Z,1.00
2022-12-18T23:22:10.040Z,0.90
2022-12-18T23:24:38.832Z,0.90
2022-12-18T23:27:10.248Z,0.90
2022-12-18T23:29:39.342Z,0.90
2022-12-18T23:32:07.507Z,0.90
2022-12-18T23:34:34.381Z,0.80
2022-12-18T23:37:01.741Z,0.90
2022-12-18T23:39:30.291Z,0.80
2022-12-18T23:42:00.952Z,0.80
2022-12-18T23:44:29.215Z,0.80
2022-12-18T23:46:56.289Z,0.80
2022-12-18T23:49:23.421Z,0.80
2022-12-18T23:51:50.747Z,0.80
2022-12-18T23:54:21.096Z,0.70
2022-12-18T23:56:57.142Z,0.70
2022-12-18T23:59:25.561Z,0.70
